Time;durP1;ratioP1;P1;durP2;ratioP2;P2;SDS_P1;SDS_P2;PMS_P1;PMS_P2;Temp;Humidity;BMP_temperature;BMP_pressure;BME280_temperature;BME280_humidity;BME280_pressure;Samples;Min_cycle;Max_cycle;Signal;HPM_P1;HPM_P2
2022/09/17 00:04:48;;;;;;;9.30;2.10;;;;;9.70;101017.00;;;;13088265;22;20183;-72
2022/09/17 00:09:49;;;;;;;8.10;2.23;;;;;9.70;101018.00;;;;13040447;22;20270;-72
2022/09/17 00:14:50;;;;;;;10.73;2.27;;;;;9.80;101011.00;;;;13037896;22;20767;-72
2022/09/17 00:19:51;;;;;;;8.77;2.57;;;;;9.80;101021.00;;;;13059002;22;20606;-72
2022/09/17 00:24:53;;;;;;;9.10;2.87;;;;;9.90;101011.00;;;;13087769;22;20215;-72
2022/09/17 00:29:54;;;;;;;23.10;3.03;;;;;9.80;101005.00;;;;13086674;22;20159;-72
2022/09/17 00:34:55;;;;;;;12.53;2.17;;;;;9.80;101007.00;;;;12989956;22;20175;-72
2022/09/17 00:39:56;;;;;;;11.13;2.33;;;;;9.90;101020.00;;;;13065462;22;20164;-72
2022/09/17 00:44:57;;;;;;;9.60;2.00;;;;;9.90;101044.00;;;;13062158;22;20190;-72
2022/09/17 00:50:03;;;;;;;8.73;2.63;;;;;9.90;101048.00;;;;13085696;22;20495;-72
2022/09/17 00:55:29;;;;;;;15.10;2.43;;;;;9.90;101038.00;;;;13014488;22;20183;-72
2022/09/17 01:00:31;;;;;;;9.77;2.23;;;;;9.90;101048.00;;;;13040449;22;20195;-72
2022/09/17 01:05:36;;;;;;;11.30;2.10;;;;;9.90;101057.00;;;;13088875;22;20213;-72
2022/09/17 01:10:54;;;;;;;8.80;2.13;;;;;9.90;101049.00;;;;13088085;22;20266;-72
2022/09/17 01:16:06;;;;;;;9.13;1.90;;;;;9.90;101057.00;;;;13116278;22;20241;-72
2022/09/17 01:21:29;;;;;;;10.97;1.83;;;;;9.90;101070.00;;;;13086404;22;20240;-71
2022/09/17 01:26:59;;;;;;;8.67;1.90;;;;;10.00;101078.00;;;;13112959;22;20159;-72
2022/09/17 01:32:16;;;;;;;15.87;1.90;;;;;10.00;101061.00;;;;13040652;22;20171;-72
2022/09/17 01:37:35;;;;;;;12.40;2.30;;;;;10.00;101056.00;;;;13087102;22;20163;-72
2022/09/17 01:42:41;;;;;;;11.30;2.30;;;;;10.00;101066.00;;;;13038182;22;20192;-71
2022/09/17 01:47:56;;;;;;;12.57;2.20;;;;;10.00;101058.00;;;;13035884;22;20171;-72
2022/09/17 01:52:58;;;;;;;14.20;2.60;;;;;9.90;101063.00;;;;13065252;22;20606;-71
2022/09/17 01:58:07;;;;;;;9.20;2.27;;;;;9.90;101067.00;;;;13014123;22;20224;-72
2022/09/17 02:03:29;;;;;;;9.27;2.50;;;;;9.80;101067.00;;;;13013863;22;20191;-72
2022/09/17 02:08:53;;;;;;;7.63;2.37;;;;;9.80;101073.00;;;;13063173;22;20849;-71
2022/09/17 02:13:58;;;;;;;12.27;2.90;;;;;9.90;101077.00;;;;13061193;22;20160;-72
2022/09/17 02:19:21;;;;;;;13.80;2.80;;;;;9.90;101092.00;;;;13086124;22;20168;-72
2022/09/17 02:24:36;;;;;;;9.90;2.30;;;;;10.00;101076.00;;;;13060003;22;20187;-72
2022/09/17 02:29:41;;;;;;;8.87;2.40;;;;;10.00;101068.00;;;;13058494;22;20513;-72
2022/09/17 02:34:42;;;;;;;17.17;2.60;;;;;10.00;101067.00;;;;13035068;22;20162;-72
2022/09/17 02:39:44;;;;;;;15.80;3.07;;;;;10.00;101058.00;;;;13085891;22;20221;-72
2022/09/17 02:45:10;;;;;;;14.33;1.93;;;;;10.00;101057.00;;;;13039197;22;20201;-72
2022/09/17 02:50:20;;;;;;;13.73;1.80;;;;;9.90;101043.00;;;;13014210;22;20816;-72
2022/09/17 02:55:28;;;;;;;7.87;2.17;;;;;9.90;101051.00;;;;13013637;22;20198;-72
2022/09/17 03:00:30;;;;;;;12.67;2.07;;;;;9.90;101062.00;;;;13012253;22;20518;-72
2022/09/17 03:05:32;;;;;;;11.93;2.10;;;;;9.90;101054.00;;;;13038500;22;20685;-72
2022/09/17 03:10:34;;;;;;;15.30;2.50;;;;;9.80;101062.00;;;;13061721;22;20191;-72
2022/09/17 03:15:35;;;;;;;15.13;2.60;;;;;9.60;101054.00;;;;13038713;22;20167;-72
2022/09/17 03:20:36;;;;;;;12.23;1.80;;;;;9.60;101059.00;;;;13009385;22;20226;-71
2022/09/17 03:25:37;;;;;;;9.40;2.10;;;;;9.60;101058.00;;;;13038422;22;20260;-72
2022/09/17 03:30:38;;;;;;;13.57;2.33;;;;;9.70;101053.00;;;;13065252;22;20276;-71
2022/09/17 03:35:43;;;;;;;12.77;2.20;;;;;9.70;101040.00;;;;13062706;22;20162;-72
2022/09/17 03:40:58;;;;;;;13.43;2.57;;;;;9.70;101055.00;;;;13016301;22;20526;-72
2022/09/17 03:46:00;;;;;;;12.83;2.80;;;;;9.60;101049.00;;;;13061657;22;20239;-72
2022/09/17 03:51:02;;;;;;;12.50;2.57;;;;;9.50;101052.00;;;;13016967;22;20373;-72
2022/09/17 03:56:05;;;;;;;12.57;2.97;;;;;9.50;101057.00;;;;13116095;22;20167;-72
2022/09/17 04:01:06;;;;;;;18.00;2.57;;;;;9.40;101067.00;;;;13088232;22;20187;-71
2022/09/17 04:06:07;;;;;;;13.30;3.10;;;;;9.40;101063.00;;;;13015600;22;20168;-72
2022/09/17 04:11:09;;;;;;;15.50;2.83;;;;;9.30;101059.00;;;;13116484;22;20820;-72
2022/09/17 04:16:11;;;;;;;14.67;2.93;;;;;9.40;101054.00;;;;13086491;22;20773;-71
2022/09/17 04:21:12;;;;;;;19.13;4.53;;;;;9.30;101070.00;;;;13040997;22;20294;-72
2022/09/17 04:26:13;;;;;;;14.57;2.80;;;;;9.40;101070.00;;;;13040925;22;20190;-72
2022/09/17 04:31:14;;;;;;;17.47;2.67;;;;;9.40;101071.00;;;;13040408;22;20247;-72
2022/09/17 04:36:16;;;;;;;15.87;3.10;;;;;9.40;101063.00;;;;13040996;22;20167;-72
2022/09/17 04:41:17;;;;;;;15.07;3.53;;;;;9.40;101075.00;;;;13035187;22;20537;-72
2022/09/17 04:46:19;;;;;;;9.23;2.20;;;;;9.50;101104.00;;;;13041132;22;20197;-73
2022/09/17 04:51:20;;;;;;;17.70;3.10;;;;;9.40;101087.00;;;;13040608;22;20175;-72
2022/09/17 04:56:21;;;;;;;13.77;2.70;;;;;9.30;101087.00;;;;13088470;22;20214;-72
2022/09/17 05:01:22;;;;;;;17.40;2.63;;;;;9.20;101090.00;;;;13060218;22;20183;-72
2022/09/17 05:06:24;;;;;;;20.07;2.97;;;;;9.10;101086.00;;;;13086939;22;20511;-72
2022/09/17 05:11:25;;;;;;;21.17;2.80;;;;;9.10;101091.00;;;;13059726;22;20198;-72
2022/09/17 05:16:26;;;;;;;14.10;2.30;;;;;9.20;101095.00;;;;13041249;22;20167;-72
2022/09/17 05:21:28;;;;;;;15.03;2.70;;;;;9.20;101093.00;;;;13115551;22;20622;-72
2022/09/17 05:26:29;;;;;;;21.50;3.40;;;;;9.30;101092.00;;;;13088811;22;20183;-72
2022/09/17 05:31:30;;;;;;;18.60;3.10;;;;;9.40;101124.00;;;;13061730;22;20583;-72
2022/09/17 05:36:32;;;;;;;23.73;3.33;;;;;9.50;101141.00;;;;13035704;22;20630;-72
2022/09/17 05:41:33;;;;;;;15.17;3.43;;;;;9.50;101142.00;;;;13038690;22;20196;-73
2022/09/17 05:46:34;;;;;;;13.70;2.60;;;;;9.50;101143.00;;;;13087043;22;20257;-72
2022/09/17 05:51:36;;;;;;;21.07;4.30;;;;;9.50;101148.00;;;;13086972;22;20168;-72
2022/09/17 05:56:37;;;;;;;28.07;3.43;;;;;9.50;101133.00;;;;13086539;22;20215;-72
2022/09/17 06:01:38;;;;;;;23.93;3.33;;;;;9.70;101124.00;;;;13040683;22;20191;-72
2022/09/17 06:06:40;;;;;;;10.80;3.27;;;;;9.90;101123.00;;;;13037402;22;20191;-72
2022/09/17 06:11:41;;;;;;;14.93;3.07;;;;;10.00;101127.00;;;;13061068;22;20246;-72
2022/09/17 06:16:43;;;;;;;13.97;2.60;;;;;10.10;101130.00;;;;13036743;22;20248;-73
2022/09/17 06:21:46;;;;;;;25.27;3.70;;;;;10.20;101124.00;;;;13014777;22;20238;-72
2022/09/17 06:26:47;;;;;;;21.23;3.73;;;;;10.20;101144.00;;;;13061024;22;20197;-72
2022/09/17 06:31:48;;;;;;;17.07;3.00;;;;;10.40;101159.00;;;;13035880;22;20333;-72
2022/09/17 06:36:50;;;;;;;16.57;2.80;;;;;10.60;101152.00;;;;13039545;22;20172;-72
2022/09/17 06:41:51;;;;;;;18.23;3.33;;;;;11.00;101149.00;;;;13039433;22;20215;-72
2022/09/17 06:46:52;;;;;;;9.37;2.67;;;;;11.40;101136.00;;;;13039417;22;20168;-72
2022/09/17 06:51:53;;;;;;;15.97;3.20;;;;;11.50;101130.00;;;;12988321;22;20171;-72
2022/09/17 06:56:54;;;;;;;13.40;2.57;;;;;11.50;101130.00;;;;13036499;22;20163;-72
2022/09/17 07:01:55;;;;;;;15.83;3.97;;;;;11.40;101138.00;;;;13058708;22;20601;-72
2022/09/17 07:06:57;;;;;;;14.20;3.40;;;;;12.10;101144.00;;;;13088252;22;20222;-72
2022/09/17 07:11:58;;;;;;;13.57;2.70;;;;;12.60;101145.00;;;;13042140;22;20250;-71
2022/09/17 07:16:59;;;;;;;14.13;2.70;;;;;12.70;101163.00;;;;13039258;22;20164;-72
2022/09/17 07:22:00;;;;;;;13.50;2.57;;;;;12.50;101149.00;;;;13036446;22;20253;-72
2022/09/17 07:27:02;;;;;;;19.80;10.07;;;;;12.40;101164.00;;;;13087161;22;20534;-72
2022/09/17 07:32:03;;;;;;;9.83;2.60;;;;;12.20;101168.00;;;;13040838;22;20523;-72
2022/09/17 07:37:04;;;;;;;16.07;3.27;;;;;12.40;101171.00;;;;13088370;22;20546;-73
2022/09/17 07:42:05;;;;;;;13.50;2.67;;;;;12.10;101170.00;;;;13039338;22;20195;-72
2022/09/17 07:47:07;;;;;;;22.50;10.17;;;;;12.10;101157.00;;;;13062603;22;20552;-73
2022/09/17 07:52:08;;;;;;;12.80;2.73;;;;;12.20;101175.00;;;;13065540;22;20735;-72
2022/09/17 07:57:09;;;;;;;10.20;6.40;;;;;12.20;101192.00;;;;12986370;22;20210;-72
2022/09/17 08:02:13;;;;;;;8.43;3.67;;;;;12.10;101188.00;;;;13012079;22;20822;-72
2022/09/17 08:07:14;;;;;;;14.90;8.27;;;;;12.20;101183.00;;;;13039798;22;20192;-73
2022/09/17 08:12:17;;;;;;;11.83;4.17;;;;;12.20;101180.00;;;;13086284;22;20164;-73
2022/09/17 08:17:18;;;;;;;14.83;5.53;;;;;13.10;101176.00;;;;13015403;22;20206;-72
2022/09/17 08:22:19;;;;;;;13.27;3.60;;;;;14.00;101177.00;;;;13016165;22;20230;-72
2022/09/17 08:27:20;;;;;;;10.17;1.97;;;;;13.90;101173.00;;;;13016087;22;20697;-72
2022/09/17 08:32:22;;;;;;;9.43;2.70;;;;;13.80;101173.00;;;;13041363;22;20484;-72
2022/09/17 08:37:24;;;;;;;10.43;2.40;;;;;13.60;101173.00;;;;13035377;22;20163;-72
2022/09/17 08:42:35;;;;;;;8.47;2.13;;;;;13.10;101178.00;;;;13039683;22;20613;-72
2022/09/17 08:47:41;;;;;;;14.07;2.63;;;;;13.70;101185.00;;;;13059329;22;20239;-73
2022/09/17 08:53:01;;;;;;;9.20;2.40;;;;;15.00;101170.00;;;;13012711;22;20414;-72
2022/09/17 08:58:02;;;;;;;9.13;2.20;;;;;16.70;101177.00;;;;13086540;22;20167;-72
2022/09/17 09:03:19;;;;;;;4.88;1.50;;;;;15.50;101201.00;;;;13056807;22;20180;-75
2022/09/17 09:08:38;;;;;;;7.20;1.58;;;;;14.10;101215.00;;;;13064116;22;20259;-75
2022/09/17 09:13:42;;;;;;;5.30;1.30;;;;;13.10;101235.00;;;;13113143;22;20164;-75
2022/09/17 09:18:43;;;;;;;5.53;1.20;;;;;12.60;101232.00;;;;13038195;22;20507;-75
2022/09/17 09:23:57;;;;;;;4.57;1.30;;;;;12.40;101235.00;;;;13060421;22;20191;-75
2022/09/17 09:29:10;;;;;;;5.47;1.50;;;;;13.10;101208.00;;;;13064192;22;20164;-74
2022/09/17 09:34:13;;;;;;;10.80;2.73;;;;;15.40;101202.00;;;;13012862;22;20549;-75
2022/09/17 09:39:23;;;;;;;8.35;1.80;;;;;16.00;101188.00;;;;13109493;22;20171;-75
2022/09/17 09:44:25;;;;;;;5.60;1.80;;;;;15.80;101172.00;;;;13086534;22;20182;-75
2022/09/17 09:49:38;;;;;;;6.72;1.63;;;;;15.40;101184.00;;;;13114912;22;20621;-75
2022/09/17 09:55:00;;;;;;;6.90;1.60;;;;;16.00;101193.00;;;;13039587;22;20178;-75
2022/09/17 10:00:29;;;;;;;6.72;1.10;;;;;15.50;101184.00;;;;13062693;22;20167;-75
2022/09/17 10:05:30;;;;;;;3.88;0.73;;;;;14.50;101198.00;;;;13028181;22;20258;-75
2022/09/17 10:10:31;;;;;;;2.53;0.70;;;;;13.90;101203.00;;;;13063642;22;20195;-75
2022/09/17 10:15:33;;;;;;;5.18;1.27;;;;;14.90;101205.00;;;;13034171;22;20174;-75
2022/09/17 10:20:34;;;;;;;4.95;1.08;;;;;15.10;101216.00;;;;13079817;22;20250;-75
2022/09/17 10:25:42;;;;;;;4.35;1.00;;;;;14.00;101227.00;;;;13057545;22;20757;-75
2022/09/17 10:30:59;;;;;;;3.00;0.87;;;;;13.50;101232.00;;;;13085228;22;20635;-75
2022/09/17 10:36:07;;;;;;;1.80;0.70;;;;;13.10;101226.00;;;;13061432;22;20159;-76
2022/09/17 10:41:24;;;;;;;2.83;0.90;;;;;12.60;101224.00;;;;13061740;22;20210;-75
2022/09/17 10:46:29;;;;;;;1.97;0.60;;;;;13.00;101224.00;;;;13067198;22;20171;-75
2022/09/17 10:51:31;;;;;;;4.30;0.73;;;;;13.90;101211.00;;;;13087779;22;20167;-76
2022/09/17 10:56:37;;;;;;;1.90;0.70;;;;;14.80;101207.00;;;;13036464;22;20163;-76
2022/09/17 11:01:54;;;;;;;2.03;0.83;;;;;14.90;101205.00;;;;13043538;22;20191;-75
2022/09/17 11:07:38;;;;;;;4.38;1.02;;;;;15.00;101218.00;;;;13089678;22;20242;-75
2022/09/17 11:13:06;;;;;;;4.67;1.13;;;;;14.30;101212.00;;;;13016642;22;20671;-75
2022/09/17 11:18:16;;;;;;;6.70;1.57;;;;;13.40;101232.00;;;;13039480;22;20274;-75
2022/09/17 11:23:32;;;;;;;3.17;1.10;;;;;12.70;101239.00;;;;13010629;22;20202;-75
2022/09/17 11:28:45;;;;;;;3.90;1.07;;;;;12.60;101253.00;;;;13116754;22;20254;-75
2022/09/17 11:34:11;;;;;;;2.90;1.00;;;;;12.50;101213.00;;;;13067076;22;20171;-74
2022/09/17 11:39:27;;;;;;;4.43;1.00;;;;;13.00;101208.00;;;;13088291;22;20186;-74
2022/09/17 11:44:37;;;;;;;1.70;0.70;;;;;13.90;101204.00;;;;13042719;22;20681;-74
2022/09/17 11:49:51;;;;;;;5.20;0.83;;;;;14.70;101201.00;;;;13017097;22;20195;-75
2022/09/17 11:55:04;;;;;;;3.63;0.87;;;;;14.60;101190.00;;;;12991788;22;20172;-74
2022/09/17 12:00:12;;;;;;;4.83;1.03;;;;;15.00;101188.00;;;;13061730;22;20168;-75
2022/09/17 12:05:26;;;;;;;4.93;1.10;;;;;15.30;101176.00;;;;13088371;22;20392;-75
2022/09/17 12:10:30;;;;;;;8.27;1.60;;;;;15.90;101166.00;;;;13068195;22;20903;-75
2022/09/17 12:15:34;;;;;;;8.18;1.73;;;;;16.60;101165.00;;;;13041199;22;20255;-75
2022/09/17 12:20:40;;;;;;;8.48;1.50;;;;;17.00;101164.00;;;;13041431;22;20606;-76
2022/09/17 12:25:55;;;;;;;6.07;1.63;;;;;17.20;101166.00;;;;13087780;22;20572;-75
2022/09/17 12:31:07;;;;;;;7.03;1.60;;;;;17.40;101176.00;;;;13116999;22;20177;-76
2022/09/17 12:36:14;;;;;;;5.90;1.63;;;;;17.80;101166.00;;;;13042164;22;20167;-76
2022/09/17 12:41:56;;;;;;;7.40;1.77;;;;;18.10;101173.00;;;;13088144;22;20183;-76
2022/09/17 12:47:44;;;;;;;8.32;2.03;;;;;17.60;101183.00;;;;13041085;22;20171;-76
2022/09/17 12:52:56;;;;;;;10.85;2.30;;;;;16.60;101165.00;;;;13088823;22;20194;-76
2022/09/17 12:58:16;;;;;;;13.10;2.40;;;;;16.40;101164.00;;;;13063796;22;20774;-76
2022/09/17 13:03:25;;;;;;;10.18;1.88;;;;;16.90;101151.00;;;;13015644;22;20234;-76
2022/09/17 13:08:29;;;;;;;7.40;2.15;;;;;17.20;101149.00;;;;13064972;22;20222;-76
2022/09/17 13:13:56;;;;;;;10.55;2.22;;;;;18.00;101155.00;;;;13064527;22;20242;-77
2022/09/17 13:19:16;;;;;;;8.13;2.00;;;;;18.70;101161.00;;;;13063569;22;20470;-77
2022/09/17 13:24:21;;;;;;;8.05;1.67;;;;;19.50;101173.00;;;;13041517;22;20190;-77
2022/09/17 13:29:44;;;;;;;5.80;1.75;;;;;20.20;101153.00;;;;13042742;22;20171;-77
2022/09/17 13:34:46;;;;;;;9.68;1.98;;;;;20.10;101149.00;;;;13063516;22;20245;-76
2022/09/17 13:39:49;;;;;;;7.78;1.77;;;;;21.10;101148.00;;;;13042223;22;20164;-77
2022/09/17 13:45:01;;;;;;;10.88;1.95;;;;;21.30;101164.00;;;;13063145;22;20252;-77
2022/09/17 13:50:06;;;;;;;11.95;1.85;;;;;19.70;101184.00;;;;13041059;22;20431;-77
2022/09/17 13:55:28;;;;;;;3.97;1.27;;;;;17.00;101186.00;;;;13061678;22;20218;-77
2022/09/17 14:01:13;;;;;;;3.67;1.30;;;;;19.80;101170.00;;;;13042196;22;20201;-77
2022/09/17 14:06:18;;;;;;;4.47;1.15;;;;;20.70;101147.00;;;;13040954;22;20271;-77
2022/09/17 14:11:22;;;;;;;4.80;1.50;;;;;19.60;101179.00;;;;13045010;22;20218;-77
2022/09/17 14:16:36;;;;;;;3.85;0.73;;;;;17.90;101193.00;;;;13091570;22;20167;-77
2022/09/17 14:21:37;;;;;;;3.33;0.90;;;;;17.40;101204.00;;;;13044453;22;20279;-77
2022/09/17 14:27:19;;;;;;;2.47;0.50;;;;;16.90;101187.00;;;;12991756;22;20182;-77
2022/09/17 14:32:31;;;;;;;4.75;0.90;;;;;15.80;101214.00;;;;13064083;22;20260;-77
2022/09/17 14:37:33;;;;;;;4.45;1.77;;;;;15.70;101213.00;;;;13015374;22;20288;-77
2022/09/17 14:42:37;;;;;;;4.25;1.20;;;;;15.20;101215.00;;;;13036943;22;20209;-77
2022/09/17 14:47:38;;;;;;;4.28;0.93;;;;;14.60;101221.00;;;;13041274;22;20804;-77
2022/09/17 14:52:39;;;;;;;7.90;0.97;;;;;14.50;101225.00;;;;13015880;22;20179;-77
2022/09/17 14:57:40;;;;;;;2.93;0.93;;;;;14.80;101234.00;;;;13017589;22;20642;-77
2022/09/17 15:02:42;;;;;;;2.80;0.63;;;;;15.00;101225.00;;;;13017705;22;20199;-77
2022/09/17 15:07:45;;;;;;;3.90;0.77;;;;;14.50;101233.00;;;;13014564;22;20207;-77
2022/09/17 15:12:48;;;;;;;3.27;1.17;;;;;14.40;101229.00;;;;12995664;22;20282;-77
2022/09/17 15:17:50;;;;;;;1.40;0.80;;;;;14.90;101233.00;;;;13042720;22;20167;-77
2022/09/17 15:23:07;;;;;;;2.03;0.80;;;;;15.40;101245.00;;;;13016924;22;20195;-77
2022/09/17 15:28:23;;;;;;;5.80;1.10;;;;;14.70;101253.00;;;;13062706;22;20599;-76
2022/09/17 15:33:25;;;;;;;2.93;0.90;;;;;13.30;101254.00;;;;13061287;22;20167;-76
2022/09/17 15:38:28;;;;;;;6.87;1.40;;;;;13.20;101235.00;;;;13114746;22;20472;-76
2022/09/17 15:43:33;;;;;;;4.00;0.97;;;;;13.10;101247.00;;;;13064303;22;20274;-77
2022/09/17 15:48:37;;;;;;;4.73;1.10;;;;;12.90;101239.00;;;;13060281;22;20627;-77
2022/09/17 15:53:38;;;;;;;3.00;1.03;;;;;12.30;101258.00;;;;13063474;22;20171;-77
2022/09/17 15:58:40;;;;;;;5.43;1.60;;;;;12.10;101242.00;;;;13059214;22;20236;-76
2022/09/17 16:03:44;;;;;;;6.70;1.43;;;;;11.90;101226.00;;;;13059950;22;20187;-76
2022/09/17 16:08:48;;;;;;;3.67;0.93;;;;;11.80;101212.00;;;;13061698;22;20191;-76
2022/09/17 16:13:52;;;;;;;5.07;1.20;;;;;11.80;101216.00;;;;13113849;22;20167;-75
2022/09/17 16:18:54;;;;;;;7.43;1.97;;;;;11.70;101219.00;;;;13038280;22;20206;-75
2022/09/17 16:23:56;;;;;;;3.83;1.00;;;;;11.90;101221.00;;;;12986082;22;20207;-76
2022/09/17 16:29:03;;;;;;;5.90;1.40;;;;;12.00;101219.00;;;;13037232;22;20167;-75
2022/09/17 16:34:04;;;;;;;6.83;1.20;;;;;12.00;101226.00;;;;13013214;22;20642;-76
2022/09/17 16:39:05;;;;;;;6.63;1.40;;;;;11.90;101226.00;;;;13013350;22;20291;-76
2022/09/17 16:44:06;;;;;;;4.47;1.27;;;;;11.90;101225.00;;;;13015152;22;20191;-76
2022/09/17 16:49:08;;;;;;;4.33;1.47;;;;;11.80;101228.00;;;;13037686;22;20171;-76
2022/09/17 16:54:09;;;;;;;11.63;2.43;;;;;11.90;101217.00;;;;13015191;22;20199;-76
2022/09/17 16:59:10;;;;;;;5.93;1.90;;;;;11.90;101224.00;;;;13036946;22;20198;-76
2022/09/17 17:04:11;;;;;;;6.57;1.93;;;;;12.00;101231.00;;;;13039148;22;20278;-76
2022/09/17 17:09:13;;;;;;;7.67;1.97;;;;;12.10;101238.00;;;;13004999;22;20222;-77
2022/09/17 17:14:14;;;;;;;10.23;3.00;;;;;12.40;101234.00;;;;13041996;22;20176;-77
2022/09/17 17:19:16;;;;;;;7.10;2.20;;;;;12.40;101243.00;;;;13068504;22;20867;-77
2022/09/17 17:24:18;;;;;;;5.77;1.83;;;;;12.30;101243.00;;;;13040871;22;20282;-77
2022/09/17 17:29:19;;;;;;;4.63;1.67;;;;;12.10;101258.00;;;;13090544;22;20163;-77
2022/09/17 17:34:20;;;;;;;6.37;1.93;;;;;11.90;101260.00;;;;13091436;22;20190;-77
2022/09/17 17:39:22;;;;;;;7.63;1.93;;;;;11.70;101253.00;;;;13043108;22;20644;-77
2022/09/17 17:44:24;;;;;;;8.30;3.03;;;;;11.70;101265.00;;;;13022801;22;20195;-77
2022/09/17 17:49:25;;;;;;;9.40;2.37;;;;;11.60;101282.00;;;;13093039;22;20323;-77
2022/09/17 17:54:27;;;;;;;7.83;2.10;;;;;11.60;101268.00;;;;13091407;22;20166;-77
2022/09/17 17:59:28;;;;;;;8.73;2.33;;;;;11.50;101280.00;;;;13020632;22;20203;-78
2022/09/17 18:04:29;;;;;;;8.27;2.80;;;;;11.50;101280.00;;;;13047235;22;20195;-78
2022/09/17 18:09:31;;;;;;;6.73;1.87;;;;;11.50;101287.00;;;;13070457;22;20175;-78
2022/09/17 18:14:32;;;;;;;7.33;2.10;;;;;11.50;101291.00;;;;13022908;22;20213;-78
2022/09/17 18:19:34;;;;;;;8.93;2.93;;;;;11.40;101296.00;;;;13022314;22;20171;-77
2022/09/17 18:24:37;;;;;;;6.17;2.33;;;;;11.40;101294.00;;;;13020911;22;20664;-77
2022/09/17 18:29:38;;;;;;;6.47;2.50;;;;;11.40;101304.00;;;;12994930;22;20172;-77
2022/09/17 18:34:40;;;;;;;12.40;3.33;;;;;11.30;101314.00;;;;13015142;22;20197;-77
2022/09/17 18:39:41;;;;;;;10.00;3.13;;;;;11.30;101322.00;;;;13039889;22;20164;-77
2022/09/17 18:44:59;;;;;;;7.30;2.27;;;;;11.20;101320.00;;;;13094045;22;20193;-77
2022/09/17 18:50:00;;;;;;;8.47;2.57;;;;;11.20;101330.00;;;;13066734;22;20167;-77
2022/09/17 18:55:02;;;;;;;10.37;2.50;;;;;11.20;101328.00;;;;13093272;22;20172;-77
2022/09/17 19:00:09;;;;;;;7.70;3.50;;;;;11.20;101344.00;;;;13069683;22;20231;-77
2022/09/17 19:05:11;;;;;;;8.93;2.43;;;;;11.20;101346.00;;;;13002014;22;20206;-77
2022/09/17 19:10:14;;;;;;;6.83;2.47;;;;;11.20;101340.00;;;;13054209;22;20194;-78
2022/09/17 19:15:15;;;;;;;6.77;2.10;;;;;11.20;101333.00;;;;13031641;22;20760;-78
2022/09/17 19:20:18;;;;;;;10.43;2.80;;;;;11.20;101348.00;;;;13098262;22;20171;-77
2022/09/17 19:25:19;;;;;;;12.07;3.10;;;;;11.20;101346.00;;;;13053910;22;20203;-76
2022/09/17 19:30:22;;;;;;;11.27;3.90;;;;;11.20;101331.00;;;;13050288;22;20630;-77
2022/09/17 19:35:24;;;;;;;5.27;2.20;;;;;11.10;101328.00;;;;13027751;22;20175;-77
2022/09/17 19:40:26;;;;;;;12.07;2.80;;;;;11.10;101334.00;;;;13027813;22;20541;-77
2022/09/17 19:45:28;;;;;;;13.60;2.83;;;;;11.10;101341.00;;;;13072990;22;20420;-77
2022/09/17 19:50:32;;;;;;;8.60;2.40;;;;;11.10;101339.00;;;;13042190;22;20182;-77
2022/09/17 19:55:37;;;;;;;8.27;2.87;;;;;11.10;101344.00;;;;13067477;22;20223;-77
2022/09/17 20:00:38;;;;;;;7.03;3.17;;;;;11.20;101349.00;;;;13096170;22;20168;-77
2022/09/17 20:05:39;;;;;;;12.47;3.53;;;;;11.20;101366.00;;;;13052112;22;20187;-77
2022/09/17 20:10:40;;;;;;;13.23;2.80;;;;;11.20;101374.00;;;;13027828;22;20187;-77
2022/09/17 20:15:42;;;;;;;12.93;2.83;;;;;11.20;101359.00;;;;13071147;22;20175;-78
2022/09/17 20:20:43;;;;;;;7.47;2.80;;;;;11.20;101355.00;;;;13073053;22;20178;-78
2022/09/17 20:25:51;;;;;;;7.57;2.40;;;;;11.20;101356.00;;;;13021352;22;20191;-78
2022/09/17 20:31:22;;;;;;;11.00;3.90;;;;;11.20;101361.00;;;;12997773;22;20178;-78
2022/09/17 20:36:30;;;;;;;9.17;3.90;;;;;11.20;101344.00;;;;13047880;22;20195;-77
2022/09/17 20:41:33;;;;;;;7.23;4.23;;;;;11.10;101355.00;;;;13052240;22;20478;-78
2022/09/17 20:46:34;;;;;;;11.73;4.43;;;;;11.10;101348.00;;;;13049852;22;20212;-77
2022/09/17 20:51:35;;;;;;;6.67;4.20;;;;;11.10;101342.00;;;;13049793;22;20172;-78
2022/09/17 20:56:36;;;;;;;11.83;4.60;;;;;11.10;101348.00;;;;13020752;22;20299;-78
2022/09/17 21:01:38;;;;;;;7.80;4.80;;;;;11.10;101332.00;;;;13123137;22;20179;-78
2022/09/17 21:06:41;;;;;;;9.07;4.43;;;;;11.00;101340.00;;;;13048651;22;20164;-78
2022/09/17 21:11:44;;;;;;;8.80;3.80;;;;;11.00;101341.00;;;;13048753;22;20180;-78
2022/09/17 21:16:46;;;;;;;10.97;4.10;;;;;11.00;101340.00;;;;13048322;22;20179;-77
2022/09/17 21:21:50;;;;;;;10.23;4.10;;;;;11.00;101335.00;;;;13044039;22;20183;-78
2022/09/17 21:26:52;;;;;;;11.27;3.00;;;;;10.90;101347.00;;;;13091584;22;20610;-78
2022/09/17 21:31:55;;;;;;;13.20;3.20;;;;;10.90;101336.00;;;;13066883;22;20189;-78
2022/09/17 21:36:57;;;;;;;9.47;3.30;;;;;10.90;101343.00;;;;13064246;22;20231;-78
2022/09/17 21:41:58;;;;;;;13.00;3.30;;;;;10.90;101346.00;;;;13045208;22;20270;-78
2022/09/17 21:46:59;;;;;;;9.20;3.43;;;;;10.90;101332.00;;;;13044856;22;20167;-78
2022/09/17 21:52:00;;;;;;;12.73;3.20;;;;;10.90;101331.00;;;;12991647;22;20614;-77
2022/09/17 21:57:02;;;;;;;9.17;3.53;;;;;10.90;101342.00;;;;13044173;22;20172;-78
2022/09/17 22:02:05;;;;;;;10.70;3.10;;;;;10.90;101337.00;;;;13063659;22;20194;-77
2022/09/17 22:07:06;;;;;;;8.30;3.20;;;;;10.80;101346.00;;;;13038560;22;20507;-77
2022/09/17 22:12:07;;;;;;;10.97;3.00;;;;;10.80;101332.00;;;;13083603;22;20167;-77
2022/09/17 22:17:09;;;;;;;6.57;2.70;;;;;10.90;101330.00;;;;13056562;22;20159;-77
2022/09/17 22:22:10;;;;;;;10.87;2.80;;;;;10.90;101342.00;;;;13082070;22;20236;-77
2022/09/17 22:27:11;;;;;;;7.10;2.17;;;;;10.90;101342.00;;;;13062500;22;20171;-78
2022/09/17 22:32:12;;;;;;;10.57;2.67;;;;;10.90;101340.00;;;;13061072;22;20258;-77
2022/09/17 22:37:14;;;;;;;7.93;2.80;;;;;10.90;101336.00;;;;13035570;22;20174;-77
2022/09/17 22:42:16;;;;;;;5.80;2.53;;;;;11.00;101348.00;;;;13035773;22;20179;-78
2022/09/17 22:47:17;;;;;;;10.63;2.73;;;;;11.00;101343.00;;;;13048398;22;20167;-77
2022/09/17 22:52:18;;;;;;;7.60;3.10;;;;;11.00;101334.00;;;;13025209;22;20681;-78
2022/09/17 22:57:19;;;;;;;9.57;2.93;;;;;11.00;101335.00;;;;13027222;22;20254;-77
2022/09/17 23:02:20;;;;;;;9.70;3.23;;;;;11.00;101331.00;;;;13096853;22;20183;-77
2022/09/17 23:07:22;;;;;;;8.93;3.00;;;;;11.00;101326.00;;;;13047052;22;20388;-78
2022/09/17 23:12:23;;;;;;;12.77;3.27;;;;;11.00;101309.00;;;;12999049;22;20224;-78
2022/09/17 23:17:24;;;;;;;9.07;3.03;;;;;11.00;101311.00;;;;13047709;22;20558;-78
2022/09/17 23:22:30;;;;;;;11.53;2.73;;;;;11.00;101306.00;;;;13042255;22;20183;-77
2022/09/17 23:27:31;;;;;;;12.03;3.43;;;;;11.00;101310.00;;;;13041477;22;20213;-78
2022/09/17 23:32:32;;;;;;;6.43;2.57;;;;;11.00;101308.00;;;;13045035;22;20661;-78
2022/09/17 23:37:33;;;;;;;8.10;2.67;;;;;11.00;101308.00;;;;13067179;22;20242;-77
2022/09/17 23:42:35;;;;;;;6.73;2.87;;;;;10.90;101312.00;;;;13020015;22;20202;-77
2022/09/17 23:47:36;;;;;;;7.63;2.53;;;;;10.90;101312.00;;;;13067670;22;20236;-78
2022/09/17 23:52:38;;;;;;;5.93;3.50;;;;;10.90;101301.00;;;;13022970;22;20218;-77
2022/09/17 23:57:39;;;;;;;9.63;2.80;;;;;10.80;101301.00;;;;13018754;22;20179;-78
